Foxridge, Maryland
Current Conditions -  °F | °C
As of 1:54 AM on Saturday 20 Dec 2014 (Local Time) from KBWI Reporting Station
Clear Clear  
Wind Chill: 28°   Ceiling: Unl
Heat Index: 28°   Visibility: 10mi
Dew Point: 19°   Wind: 3mph
Humidity: 69%   Direction: 270°W
Pressure: 30.23"   Gusts: NA
Location:  39.3744°N, 76.8156°W
Report Text: KBWI 200654Z 27003KT 10SM CLR M02/M07 A3023 RMK AO2 SLP238 T10221072
Loading
Personal Weather Stations






























Interactive Weather Map New forecast layout! Learn more

10-Day Weather Forecast

Advertisements
Track Severe Weather on mobile